Yokohama, Japan
Current Conditions -  °F | °C
As of 8:00 AM on Tuesday 21 Oct 2014 (Local Time) from RJTT Reporting Station
Light Rain Light Rain  
Wind Chill: 64°   Ceiling: 8000
Heat Index: 64°   Visibility: 4mi
Dew Point: 61°   Wind: 3mph
Humidity: 88%   Direction: 100°E
Pressure: 30.09"   Gusts: NA
Location:  35.47°N, 139.62°E
Report Text: RJTT 202300Z 10003KT 6000 -RA BR FEW015 SCT040 BKN080 18/16 Q1019 NOSIG
Loading
Personal Weather Stations






























Interactive Weather Map
Tropical Storm Tracking
New forecast layout! Learn more

10-Day Weather Forecast

Advertisements
Track Severe Weather on mobile